sensor_id;sensor_type;location;lat;lon;timestamp;P1;durP1;ratioP1;P2;durP2;ratioP2
41861;SDS011;27537;57.134;-2.136;2023-07-13T00:00:10;2.95;;;1.30;;
41861;SDS011;27537;57.134;-2.136;2023-07-13T00:02:38;4.40;;;1.60;;
41861;SDS011;27537;57.134;-2.136;2023-07-13T00:05:05;3.10;;;1.30;;
41861;SDS011;27537;57.134;-2.136;2023-07-13T00:07:33;3.30;;;1.20;;
41861;SDS011;27537;57.134;-2.136;2023-07-13T00:10:01;3.15;;;1.20;;
41861;SDS011;27537;57.134;-2.136;2023-07-13T00:12:30;3.00;;;1.20;;
41861;SDS011;27537;57.134;-2.136;2023-07-13T00:14:59;5.65;;;1.50;;
41861;SDS011;27537;57.134;-2.136;2023-07-13T00:17:27;3.65;;;1.33;;
41861;SDS011;27537;57.134;-2.136;2023-07-13T00:19:55;4.82;;;1.35;;
41861;SDS011;27537;57.134;-2.136;2023-07-13T00:22:23;5.90;;;1.50;;
41861;SDS011;27537;57.134;-2.136;2023-07-13T00:24:52;6.43;;;1.58;;
41861;SDS011;27537;57.134;-2.136;2023-07-13T00:27:22;3.33;;;1.23;;
41861;SDS011;27537;57.134;-2.136;2023-07-13T00:29:49;8.07;;;1.52;;
41861;SDS011;27537;57.134;-2.136;2023-07-13T00:32:16;3.60;;;1.27;;
41861;SDS011;27537;57.134;-2.136;2023-07-13T00:34:42;5.80;;;1.98;;
41861;SDS011;27537;57.134;-2.136;2023-07-13T00:37:09;3.28;;;1.30;;
41861;SDS011;27537;57.134;-2.136;2023-07-13T00:39:37;2.83;;;1.17;;
41861;SDS011;27537;57.134;-2.136;2023-07-13T00:42:05;4.63;;;1.30;;
41861;SDS011;27537;57.134;-2.136;2023-07-13T00:44:32;3.95;;;1.30;;
41861;SDS011;27537;57.134;-2.136;2023-07-13T00:46:59;4.32;;;1.50;;
41861;SDS011;27537;57.134;-2.136;2023-07-13T00:49:27;5.00;;;1.60;;
41861;SDS011;27537;57.134;-2.136;2023-07-13T00:51:58;5.20;;;1.50;;
41861;SDS011;27537;57.134;-2.136;2023-07-13T00:54:38;4.13;;;1.40;;
41861;SDS011;27537;57.134;-2.136;2023-07-13T00:57:08;7.97;;;1.58;;
41861;SDS011;27537;57.134;-2.136;2023-07-13T00:59:39;6.85;;;1.88;;
41861;SDS011;27537;57.134;-2.136;2023-07-13T01:02:09;4.53;;;1.45;;
41861;SDS011;27537;57.134;-2.136;2023-07-13T01:04:37;6.07;;;1.58;;
41861;SDS011;27537;57.134;-2.136;2023-07-13T01:07:05;6.72;;;1.67;;
41861;SDS011;27537;57.134;-2.136;2023-07-13T01:09:33;7.75;;;1.83;;
41861;SDS011;27537;57.134;-2.136;2023-07-13T01:12:00;3.50;;;1.67;;
41861;SDS011;27537;57.134;-2.136;2023-07-13T01:14:26;5.72;;;1.92;;
41861;SDS011;27537;57.134;-2.136;2023-07-13T01:16:53;8.27;;;2.15;;
41861;SDS011;27537;57.134;-2.136;2023-07-13T01:19:35;3.33;;;1.60;;
41861;SDS011;27537;57.134;-2.136;2023-07-13T01:22:04;5.65;;;2.10;;
41861;SDS011;27537;57.134;-2.136;2023-07-13T01:24:53;7.25;;;2.20;;
41861;SDS011;27537;57.134;-2.136;2023-07-13T01:27:21;5.03;;;1.73;;
41861;SDS011;27537;57.134;-2.136;2023-07-13T01:29:52;4.57;;;1.70;;
41861;SDS011;27537;57.134;-2.136;2023-07-13T01:32:20;5.40;;;1.70;;
41861;SDS011;27537;57.134;-2.136;2023-07-13T01:34:52;7.32;;;1.85;;
41861;SDS011;27537;57.134;-2.136;2023-07-13T01:37:21;4.72;;;1.77;;
41861;SDS011;27537;57.134;-2.136;2023-07-13T01:39:48;3.58;;;1.58;;
41861;SDS011;27537;57.134;-2.136;2023-07-13T01:42:15;3.78;;;1.67;;
41861;SDS011;27537;57.134;-2.136;2023-07-13T01:44:42;4.22;;;1.50;;
41861;SDS011;27537;57.134;-2.136;2023-07-13T01:47:09;5.05;;;1.77;;
41861;SDS011;27537;57.134;-2.136;2023-07-13T01:49:36;5.32;;;1.60;;
41861;SDS011;27537;57.134;-2.136;2023-07-13T01:52:04;4.75;;;1.90;;
41861;SDS011;27537;57.134;-2.136;2023-07-13T01:54:31;7.10;;;1.98;;
41861;SDS011;27537;57.134;-2.136;2023-07-13T01:57:00;6.25;;;1.50;;
41861;SDS011;27537;57.134;-2.136;2023-07-13T01:59:26;4.85;;;1.63;;
41861;SDS011;27537;57.134;-2.136;2023-07-13T02:01:53;6.88;;;1.50;;
41861;SDS011;27537;57.134;-2.136;2023-07-13T02:04:20;6.35;;;1.75;;
41861;SDS011;27537;57.134;-2.136;2023-07-13T02:06:47;3.63;;;1.60;;
41861;SDS011;27537;57.134;-2.136;2023-07-13T02:09:13;5.35;;;1.60;;
41861;SDS011;27537;57.134;-2.136;2023-07-13T02:11:40;4.50;;;1.70;;
41861;SDS011;27537;57.134;-2.136;2023-07-13T02:14:07;5.78;;;1.70;;
41861;SDS011;27537;57.134;-2.136;2023-07-13T02:16:33;5.90;;;1.75;;
41861;SDS011;27537;57.134;-2.136;2023-07-13T02:19:00;4.50;;;1.70;;
41861;SDS011;27537;57.134;-2.136;2023-07-13T02:21:27;6.70;;;1.92;;
41861;SDS011;27537;57.134;-2.136;2023-07-13T02:23:54;6.13;;;1.80;;
41861;SDS011;27537;57.134;-2.136;2023-07-13T02:26:21;7.65;;;2.15;;
41861;SDS011;27537;57.134;-2.136;2023-07-13T02:28:47;4.35;;;1.70;;
41861;SDS011;27537;57.134;-2.136;2023-07-13T02:31:15;4.88;;;1.60;;
41861;SDS011;27537;57.134;-2.136;2023-07-13T02:33:42;4.70;;;1.70;;
41861;SDS011;27537;57.134;-2.136;2023-07-13T02:36:09;4.70;;;1.63;;
41861;SDS011;27537;57.134;-2.136;2023-07-13T02:38:37;4.13;;;1.60;;
41861;SDS011;27537;57.134;-2.136;2023-07-13T02:41:05;4.53;;;1.80;;
41861;SDS011;27537;57.134;-2.136;2023-07-13T02:43:34;4.53;;;1.80;;
41861;SDS011;27537;57.134;-2.136;2023-07-13T02:46:01;4.00;;;1.60;;
41861;SDS011;27537;57.134;-2.136;2023-07-13T02:48:34;6.15;;;1.90;;
41861;SDS011;27537;57.134;-2.136;2023-07-13T02:51:01;5.28;;;1.80;;
41861;SDS011;27537;57.134;-2.136;2023-07-13T02:53:29;6.20;;;2.08;;
41861;SDS011;27537;57.134;-2.136;2023-07-13T02:55:56;5.43;;;2.00;;
41861;SDS011;27537;57.134;-2.136;2023-07-13T02:58:22;4.70;;;1.50;;
41861;SDS011;27537;57.134;-2.136;2023-07-13T03:00:49;3.53;;;1.40;;
41861;SDS011;27537;57.134;-2.136;2023-07-13T03:03:16;4.38;;;1.58;;
41861;SDS011;27537;57.134;-2.136;2023-07-13T03:05:43;4.15;;;1.60;;
41861;SDS011;27537;57.134;-2.136;2023-07-13T03:08:11;3.83;;;1.52;;
41861;SDS011;27537;57.134;-2.136;2023-07-13T03:10:38;3.72;;;1.30;;
41861;SDS011;27537;57.134;-2.136;2023-07-13T03:13:05;5.00;;;1.73;;
41861;SDS011;27537;57.134;-2.136;2023-07-13T03:15:32;4.43;;;1.60;;
41861;SDS011;27537;57.134;-2.136;2023-07-13T03:17:59;3.97;;;1.58;;
41861;SDS011;27537;57.134;-2.136;2023-07-13T03:20:26;4.78;;;1.63;;
41861;SDS011;27537;57.134;-2.136;2023-07-13T03:22:53;5.22;;;1.77;;
41861;SDS011;27537;57.134;-2.136;2023-07-13T03:25:19;5.18;;;1.75;;
41861;SDS011;27537;57.134;-2.136;2023-07-13T03:27:46;5.43;;;1.83;;
41861;SDS011;27537;57.134;-2.136;2023-07-13T03:30:13;5.90;;;1.67;;
41861;SDS011;27537;57.134;-2.136;2023-07-13T03:32:39;7.45;;;1.65;;
41861;SDS011;27537;57.134;-2.136;2023-07-13T03:35:06;4.63;;;1.48;;
41861;SDS011;27537;57.134;-2.136;2023-07-13T03:37:34;3.58;;;1.45;;
41861;SDS011;27537;57.134;-2.136;2023-07-13T03:40:01;5.15;;;1.38;;
41861;SDS011;27537;57.134;-2.136;2023-07-13T03:42:27;6.25;;;1.63;;
41861;SDS011;27537;57.134;-2.136;2023-07-13T03:44:54;6.25;;;1.95;;
41861;SDS011;27537;57.134;-2.136;2023-07-13T03:47:21;4.85;;;1.52;;
41861;SDS011;27537;57.134;-2.136;2023-07-13T03:49:48;4.00;;;1.50;;
41861;SDS011;27537;57.134;-2.136;2023-07-13T03:52:14;5.00;;;1.70;;
41861;SDS011;27537;57.134;-2.136;2023-07-13T03:54:41;5.07;;;1.55;;
41861;SDS011;27537;57.134;-2.136;2023-07-13T03:57:08;5.47;;;1.70;;
41861;SDS011;27537;57.134;-2.136;2023-07-13T03:59:34;3.58;;;1.42;;
41861;SDS011;27537;57.134;-2.136;2023-07-13T04:02:01;7.18;;;1.60;;
41861;SDS011;27537;57.134;-2.136;2023-07-13T04:04:30;5.80;;;1.80;;
41861;SDS011;27537;57.134;-2.136;2023-07-13T04:06:57;4.70;;;1.48;;
41861;SDS011;27537;57.134;-2.136;2023-07-13T04:09:24;6.50;;;1.60;;
41861;SDS011;27537;57.134;-2.136;2023-07-13T04:11:51;5.35;;;1.52;;
41861;SDS011;27537;57.134;-2.136;2023-07-13T04:14:18;4.60;;;1.52;;
41861;SDS011;27537;57.134;-2.136;2023-07-13T04:16:44;4.30;;;1.42;;
41861;SDS011;27537;57.134;-2.136;2023-07-13T04:19:12;4.65;;;1.58;;
41861;SDS011;27537;57.134;-2.136;2023-07-13T04:21:39;4.53;;;1.63;;
41861;SDS011;27537;57.134;-2.136;2023-07-13T04:24:06;2.45;;;1.30;;
41861;SDS011;27537;57.134;-2.136;2023-07-13T04:26:34;4.57;;;1.50;;
41861;SDS011;27537;57.134;-2.136;2023-07-13T04:29:02;4.47;;;1.58;;
41861;SDS011;27537;57.134;-2.136;2023-07-13T04:31:30;4.53;;;1.40;;
41861;SDS011;27537;57.134;-2.136;2023-07-13T04:33:57;3.40;;;1.20;;
41861;SDS011;27537;57.134;-2.136;2023-07-13T04:36:24;7.25;;;1.75;;
41861;SDS011;27537;57.134;-2.136;2023-07-13T04:38:53;4.60;;;1.30;;
41861;SDS011;27537;57.134;-2.136;2023-07-13T04:41:20;3.60;;;1.35;;
41861;SDS011;27537;57.134;-2.136;2023-07-13T04:43:48;3.85;;;1.30;;
41861;SDS011;27537;57.134;-2.136;2023-07-13T04:46:15;4.95;;;1.63;;
41861;SDS011;27537;57.134;-2.136;2023-07-13T04:48:46;4.30;;;1.70;;
41861;SDS011;27537;57.134;-2.136;2023-07-13T04:51:17;5.10;;;1.75;;
41861;SDS011;27537;57.134;-2.136;2023-07-13T04:53:44;3.45;;;1.40;;
41861;SDS011;27537;57.134;-2.136;2023-07-13T04:56:10;5.60;;;1.52;;
41861;SDS011;27537;57.134;-2.136;2023-07-13T04:58:37;3.53;;;1.63;;
41861;SDS011;27537;57.134;-2.136;2023-07-13T05:01:05;4.40;;;1.50;;
41861;SDS011;27537;57.134;-2.136;2023-07-13T05:03:32;2.70;;;1.30;;
41861;SDS011;27537;57.134;-2.136;2023-07-13T05:06:02;5.15;;;1.60;;
41861;SDS011;27537;57.134;-2.136;2023-07-13T05:08:32;4.60;;;1.50;;
41861;SDS011;27537;57.134;-2.136;2023-07-13T05:11:00;4.25;;;1.30;;
41861;SDS011;27537;57.134;-2.136;2023-07-13T05:13:27;3.78;;;1.52;;
41861;SDS011;27537;57.134;-2.136;2023-07-13T05:16:00;4.03;;;1.60;;
41861;SDS011;27537;57.134;-2.136;2023-07-13T05:18:30;3.45;;;1.20;;
41861;SDS011;27537;57.134;-2.136;2023-07-13T05:21:01;3.97;;;1.55;;
41861;SDS011;27537;57.134;-2.136;2023-07-13T05:23:30;4.97;;;1.80;;
41861;SDS011;27537;57.134;-2.136;2023-07-13T05:25:58;5.22;;;1.55;;
41861;SDS011;27537;57.134;-2.136;2023-07-13T05:28:25;3.80;;;1.60;;
41861;SDS011;27537;57.134;-2.136;2023-07-13T05:30:54;3.03;;;1.30;;
41861;SDS011;27537;57.134;-2.136;2023-07-13T05:33:21;3.90;;;1.50;;
41861;SDS011;27537;57.134;-2.136;2023-07-13T05:35:48;6.03;;;1.58;;
41861;SDS011;27537;57.134;-2.136;2023-07-13T05:38:14;3.75;;;1.63;;
41861;SDS011;27537;57.134;-2.136;2023-07-13T05:40:45;3.22;;;1.30;;
41861;SDS011;27537;57.134;-2.136;2023-07-13T05:43:12;3.17;;;1.13;;
41861;SDS011;27537;57.134;-2.136;2023-07-13T05:45:40;3.53;;;1.58;;
41861;SDS011;27537;57.134;-2.136;2023-07-13T05:48:07;4.72;;;1.45;;
41861;SDS011;27537;57.134;-2.136;2023-07-13T05:50:34;4.30;;;1.30;;
41861;SDS011;27537;57.134;-2.136;2023-07-13T05:53:00;3.65;;;1.35;;
41861;SDS011;27537;57.134;-2.136;2023-07-13T05:55:27;4.80;;;1.40;;
41861;SDS011;27537;57.134;-2.136;2023-07-13T05:57:54;2.78;;;1.17;;
41861;SDS011;27537;57.134;-2.136;2023-07-13T06:00:20;2.85;;;1.10;;
41861;SDS011;27537;57.134;-2.136;2023-07-13T06:02:47;2.65;;;1.10;;
41861;SDS011;27537;57.134;-2.136;2023-07-13T06:05:14;2.63;;;1.10;;
41861;SDS011;27537;57.134;-2.136;2023-07-13T06:07:41;4.10;;;1.17;;
41861;SDS011;27537;57.134;-2.136;2023-07-13T06:10:08;4.78;;;1.23;;
41861;SDS011;27537;57.134;-2.136;2023-07-13T06:12:36;6.75;;;1.50;;
41861;SDS011;27537;57.134;-2.136;2023-07-13T06:15:02;2.58;;;1.15;;
41861;SDS011;27537;57.134;-2.136;2023-07-13T06:17:30;3.00;;;1.20;;
41861;SDS011;27537;57.134;-2.136;2023-07-13T06:19:57;3.15;;;1.13;;
41861;SDS011;27537;57.134;-2.136;2023-07-13T06:22:23;3.45;;;1.20;;
41861;SDS011;27537;57.134;-2.136;2023-07-13T06:24:50;3.30;;;1.00;;
41861;SDS011;27537;57.134;-2.136;2023-07-13T06:27:17;2.97;;;1.00;;
41861;SDS011;27537;57.134;-2.136;2023-07-13T06:29:44;3.55;;;1.20;;
41861;SDS011;27537;57.134;-2.136;2023-07-13T06:32:11;3.40;;;1.00;;
41861;SDS011;27537;57.134;-2.136;2023-07-13T06:34:38;3.13;;;1.00;;
41861;SDS011;27537;57.134;-2.136;2023-07-13T06:37:08;3.17;;;1.00;;
41861;SDS011;27537;57.134;-2.136;2023-07-13T06:39:36;2.92;;;1.00;;
41861;SDS011;27537;57.134;-2.136;2023-07-13T06:42:02;2.58;;;1.02;;
41861;SDS011;27537;57.134;-2.136;2023-07-13T06:44:29;3.58;;;1.05;;
41861;SDS011;27537;57.134;-2.136;2023-07-13T06:46:56;2.53;;;1.23;;
41861;SDS011;27537;57.134;-2.136;2023-07-13T06:49:23;4.68;;;1.10;;
41861;SDS011;27537;57.134;-2.136;2023-07-13T06:51:49;2.05;;;1.00;;
41861;SDS011;27537;57.134;-2.136;2023-07-13T06:54:16;3.30;;;1.13;;
41861;SDS011;27537;57.134;-2.136;2023-07-13T06:56:43;1.95;;;0.95;;
41861;SDS011;27537;57.134;-2.136;2023-07-13T06:59:09;3.63;;;1.48;;
41861;SDS011;27537;57.134;-2.136;2023-07-13T07:01:36;3.53;;;1.20;;
41861;SDS011;27537;57.134;-2.136;2023-07-13T07:04:06;3.40;;;1.38;;
41861;SDS011;27537;57.134;-2.136;2023-07-13T07:06:33;4.03;;;1.13;;
41861;SDS011;27537;57.134;-2.136;2023-07-13T07:09:00;3.97;;;1.40;;
41861;SDS011;27537;57.134;-2.136;2023-07-13T07:11:26;4.00;;;1.20;;
41861;SDS011;27537;57.134;-2.136;2023-07-13T07:13:53;4.45;;;1.40;;
41861;SDS011;27537;57.134;-2.136;2023-07-13T07:16:20;3.55;;;1.23;;
41861;SDS011;27537;57.134;-2.136;2023-07-13T07:18:48;3.67;;;1.10;;
41861;SDS011;27537;57.134;-2.136;2023-07-13T07:21:15;5.93;;;1.30;;
41861;SDS011;27537;57.134;-2.136;2023-07-13T07:23:42;4.18;;;1.20;;
41861;SDS011;27537;57.134;-2.136;2023-07-13T07:26:09;2.17;;;0.90;;
41861;SDS011;27537;57.134;-2.136;2023-07-13T07:28:36;4.63;;;1.23;;
41861;SDS011;27537;57.134;-2.136;2023-07-13T07:31:06;3.35;;;1.00;;
41861;SDS011;27537;57.134;-2.136;2023-07-13T07:33:36;3.70;;;1.17;;
41861;SDS011;27537;57.134;-2.136;2023-07-13T07:36:03;4.55;;;0.90;;
41861;SDS011;27537;57.134;-2.136;2023-07-13T07:38:33;2.33;;;0.90;;
41861;SDS011;27537;57.134;-2.136;2023-07-13T07:41:02;4.07;;;1.15;;
41861;SDS011;27537;57.134;-2.136;2023-07-13T07:43:33;1.45;;;0.90;;
41861;SDS011;27537;57.134;-2.136;2023-07-13T07:46:01;4.45;;;1.10;;
41861;SDS011;27537;57.134;-2.136;2023-07-13T07:48:29;4.43;;;1.05;;
41861;SDS011;27537;57.134;-2.136;2023-07-13T07:50:56;4.78;;;1.10;;
41861;SDS011;27537;57.134;-2.136;2023-07-13T07:53:22;2.45;;;1.10;;
41861;SDS011;27537;57.134;-2.136;2023-07-13T07:55:49;4.10;;;1.27;;
41861;SDS011;27537;57.134;-2.136;2023-07-13T07:58:20;6.35;;;1.48;;
41861;SDS011;27537;57.134;-2.136;2023-07-13T08:00:49;4.30;;;1.10;;
41861;SDS011;27537;57.134;-2.136;2023-07-13T08:03:19;4.00;;;1.17;;
41861;SDS011;27537;57.134;-2.136;2023-07-13T08:05:48;3.25;;;1.10;;
41861;SDS011;27537;57.134;-2.136;2023-07-13T08:08:39;3.85;;;1.25;;
41861;SDS011;27537;57.134;-2.136;2023-07-13T08:11:06;3.17;;;1.15;;
41861;SDS011;27537;57.134;-2.136;2023-07-13T08:13:37;3.83;;;1.25;;
41861;SDS011;27537;57.134;-2.136;2023-07-13T08:16:04;3.85;;;1.27;;
41861;SDS011;27537;57.134;-2.136;2023-07-13T08:18:32;3.22;;;1.08;;
41861;SDS011;27537;57.134;-2.136;2023-07-13T08:21:05;3.38;;;1.08;;
41861;SDS011;27537;57.134;-2.136;2023-07-13T08:23:33;5.57;;;1.50;;
41861;SDS011;27537;57.134;-2.136;2023-07-13T08:26:01;3.72;;;1.13;;
41861;SDS011;27537;57.134;-2.136;2023-07-13T08:28:27;3.50;;;1.10;;
41861;SDS011;27537;57.134;-2.136;2023-07-13T08:30:54;4.13;;;1.10;;
41861;SDS011;27537;57.134;-2.136;2023-07-13T08:33:21;2.90;;;1.13;;
41861;SDS011;27537;57.134;-2.136;2023-07-13T08:35:50;3.28;;;1.05;;
41861;SDS011;27537;57.134;-2.136;2023-07-13T08:38:17;3.08;;;0.90;;
41861;SDS011;27537;57.134;-2.136;2023-07-13T08:40:48;4.85;;;1.60;;
41861;SDS011;27537;57.134;-2.136;2023-07-13T08:43:19;3.63;;;1.20;;
41861;SDS011;27537;57.134;-2.136;2023-07-13T08:46:04;1.98;;;0.90;;
41861;SDS011;27537;57.134;-2.136;2023-07-13T08:48:48;3.80;;;1.10;;
41861;SDS011;27537;57.134;-2.136;2023-07-13T08:54:02;3.13;;;1.05;;
41861;SDS011;27537;57.134;-2.136;2023-07-13T08:56:35;3.53;;;1.05;;
41861;SDS011;27537;57.134;-2.136;2023-07-13T08:59:06;2.80;;;0.98;;
41861;SDS011;27537;57.134;-2.136;2023-07-13T09:04:50;3.50;;;1.17;;
41861;SDS011;27537;57.134;-2.136;2023-07-13T09:07:40;2.97;;;1.20;;
41861;SDS011;27537;57.134;-2.136;2023-07-13T09:10:16;4.55;;;1.50;;
41861;SDS011;27537;57.134;-2.136;2023-07-13T09:12:51;3.07;;;1.20;;
41861;SDS011;27537;57.134;-2.136;2023-07-13T09:15:35;3.80;;;1.10;;
41861;SDS011;27537;57.134;-2.136;2023-07-13T09:20:42;4.43;;;1.20;;
41861;SDS011;27537;57.134;-2.136;2023-07-13T09:23:15;4.50;;;1.38;;
41861;SDS011;27537;57.134;-2.136;2023-07-13T09:25:49;4.97;;;1.67;;
41861;SDS011;27537;57.134;-2.136;2023-07-13T09:28:26;5.57;;;1.55;;
41861;SDS011;27537;57.134;-2.136;2023-07-13T09:31:01;4.57;;;1.52;;
41861;SDS011;27537;57.134;-2.136;2023-07-13T09:33:50;5.38;;;1.77;;
41861;SDS011;27537;57.134;-2.136;2023-07-13T09:36:18;5.22;;;1.52;;
41861;SDS011;27537;57.134;-2.136;2023-07-13T09:38:46;6.38;;;1.58;;
41861;SDS011;27537;57.134;-2.136;2023-07-13T09:41:18;5.53;;;1.50;;
41861;SDS011;27537;57.134;-2.136;2023-07-13T09:44:16;5.38;;;1.50;;
41861;SDS011;27537;57.134;-2.136;2023-07-13T09:46:53;5.07;;;1.40;;
41861;SDS011;27537;57.134;-2.136;2023-07-13T09:49:27;4.60;;;1.63;;
41861;SDS011;27537;57.134;-2.136;2023-07-13T09:51:59;4.22;;;1.40;;
41861;SDS011;27537;57.134;-2.136;2023-07-13T09:54:32;5.57;;;1.60;;
41861;SDS011;27537;57.134;-2.136;2023-07-13T09:57:01;6.65;;;1.75;;
41861;SDS011;27537;57.134;-2.136;2023-07-13T09:59:36;7.35;;;1.80;;
41861;SDS011;27537;57.134;-2.136;2023-07-13T10:05:13;6.38;;;1.88;;
41861;SDS011;27537;57.134;-2.136;2023-07-13T10:07:44;4.07;;;1.33;;
41861;SDS011;27537;57.134;-2.136;2023-07-13T10:10:14;6.35;;;1.70;;
41861;SDS011;27537;57.134;-2.136;2023-07-13T10:12:47;5.22;;;1.88;;
41861;SDS011;27537;57.134;-2.136;2023-07-13T10:15:23;7.75;;;2.05;;
41861;SDS011;27537;57.134;-2.136;2023-07-13T10:17:52;5.95;;;1.80;;
41861;SDS011;27537;57.134;-2.136;2023-07-13T10:20:22;3.92;;;1.35;;
41861;SDS011;27537;57.134;-2.136;2023-07-13T10:23:05;4.22;;;1.48;;
41861;SDS011;27537;57.134;-2.136;2023-07-13T10:25:38;4.10;;;1.58;;
41861;SDS011;27537;57.134;-2.136;2023-07-13T10:30:50;5.93;;;1.80;;
41861;SDS011;27537;57.134;-2.136;2023-07-13T10:33:20;3.38;;;1.40;;
41861;SDS011;27537;57.134;-2.136;2023-07-13T10:35:48;3.85;;;1.42;;
41861;SDS011;27537;57.134;-2.136;2023-07-13T10:38:21;6.68;;;1.92;;
41861;SDS011;27537;57.134;-2.136;2023-07-13T10:41:06;3.85;;;1.45;;
41861;SDS011;27537;57.134;-2.136;2023-07-13T10:43:47;2.95;;;1.10;;
41861;SDS011;27537;57.134;-2.136;2023-07-13T10:46:19;3.28;;;1.10;;
41861;SDS011;27537;57.134;-2.136;2023-07-13T10:48:50;2.50;;;0.90;;
41861;SDS011;27537;57.134;-2.136;2023-07-13T10:51:20;3.95;;;1.15;;
41861;SDS011;27537;57.134;-2.136;2023-07-13T10:54:10;3.35;;;1.20;;
41861;SDS011;27537;57.134;-2.136;2023-07-13T10:56:46;4.13;;;1.52;;
41861;SDS011;27537;57.134;-2.136;2023-07-13T11:04:41;4.70;;;1.48;;
41861;SDS011;27537;57.134;-2.136;2023-07-13T11:07:18;2.72;;;0.93;;
41861;SDS011;27537;57.134;-2.136;2023-07-13T11:09:52;5.03;;;1.40;;
41861;SDS011;27537;57.134;-2.136;2023-07-13T11:17:35;3.25;;;1.05;;
41861;SDS011;27537;57.134;-2.136;2023-07-13T11:22:50;3.72;;;1.52;;
41861;SDS011;27537;57.134;-2.136;2023-07-13T11:27:50;6.35;;;1.23;;
41861;SDS011;27537;57.134;-2.136;2023-07-13T11:35:34;4.05;;;1.52;;
41861;SDS011;27537;57.134;-2.136;2023-07-13T11:38:09;5.18;;;1.40;;
41861;SDS011;27537;57.134;-2.136;2023-07-13T11:40:42;4.68;;;1.10;;
41861;SDS011;27537;57.134;-2.136;2023-07-13T11:43:11;4.97;;;1.30;;
41861;SDS011;27537;57.134;-2.136;2023-07-13T11:45:41;4.10;;;1.30;;
41861;SDS011;27537;57.134;-2.136;2023-07-13T11:48:18;4.68;;;1.23;;
41861;SDS011;27537;57.134;-2.136;2023-07-13T11:50:56;3.92;;;1.45;;
41861;SDS011;27537;57.134;-2.136;2023-07-13T11:53:27;4.22;;;1.20;;
41861;SDS011;27537;57.134;-2.136;2023-07-13T11:55:56;2.22;;;1.00;;
41861;SDS011;27537;57.134;-2.136;2023-07-13T11:58:25;3.97;;;1.23;;
41861;SDS011;27537;57.134;-2.136;2023-07-13T12:00:55;3.65;;;1.30;;
41861;SDS011;27537;57.134;-2.136;2023-07-13T12:03:27;5.65;;;1.27;;
41861;SDS011;27537;57.134;-2.136;2023-07-13T12:08:37;6.50;;;1.77;;
41861;SDS011;27537;57.134;-2.136;2023-07-13T12:11:13;3.33;;;1.20;;
41861;SDS011;27537;57.134;-2.136;2023-07-13T12:13:43;2.60;;;1.10;;
41861;SDS011;27537;57.134;-2.136;2023-07-13T12:16:12;6.15;;;1.67;;
41861;SDS011;27537;57.134;-2.136;2023-07-13T12:18:43;4.82;;;1.50;;
41861;SDS011;27537;57.134;-2.136;2023-07-13T12:21:16;3.38;;;1.20;;
41861;SDS011;27537;57.134;-2.136;2023-07-13T12:23:47;5.60;;;1.67;;
41861;SDS011;27537;57.134;-2.136;2023-07-13T12:26:16;4.88;;;1.40;;
41861;SDS011;27537;57.134;-2.136;2023-07-13T12:28:47;5.93;;;1.45;;
41861;SDS011;27537;57.134;-2.136;2023-07-13T12:31:35;4.30;;;1.38;;
41861;SDS011;27537;57.134;-2.136;2023-07-13T12:34:12;6.25;;;1.92;;
41861;SDS011;27537;57.134;-2.136;2023-07-13T12:37:18;5.22;;;1.35;;
41861;SDS011;27537;57.134;-2.136;2023-07-13T12:39:45;4.82;;;1.52;;
41861;SDS011;27537;57.134;-2.136;2023-07-13T12:44:43;6.05;;;1.50;;
41861;SDS011;27537;57.134;-2.136;2023-07-13T12:47:12;6.82;;;1.73;;
41861;SDS011;27537;57.134;-2.136;2023-07-13T12:49:43;5.75;;;1.65;;
41861;SDS011;27537;57.134;-2.136;2023-07-13T12:52:16;2.20;;;1.10;;
41861;SDS011;27537;57.134;-2.136;2023-07-13T12:54:56;5.53;;;1.58;;
41861;SDS011;27537;57.134;-2.136;2023-07-13T12:57:32;3.17;;;1.10;;
41861;SDS011;27537;57.134;-2.136;2023-07-13T13:00:04;5.80;;;1.40;;
41861;SDS011;27537;57.134;-2.136;2023-07-13T13:02:45;5.00;;;1.30;;
41861;SDS011;27537;57.134;-2.136;2023-07-13T13:05:17;2.83;;;0.90;;
41861;SDS011;27537;57.134;-2.136;2023-07-13T13:07:44;4.30;;;0.98;;
41861;SDS011;27537;57.134;-2.136;2023-07-13T13:10:13;3.22;;;1.08;;
41861;SDS011;27537;57.134;-2.136;2023-07-13T13:12:41;2.05;;;0.80;;
41861;SDS011;27537;57.134;-2.136;2023-07-13T13:15:09;2.42;;;0.80;;
41861;SDS011;27537;57.134;-2.136;2023-07-13T13:17:38;1.77;;;0.90;;
41861;SDS011;27537;57.134;-2.136;2023-07-13T13:20:15;1.33;;;0.70;;
41861;SDS011;27537;57.134;-2.136;2023-07-13T13:22:47;1.50;;;0.70;;
41861;SDS011;27537;57.134;-2.136;2023-07-13T13:25:14;1.00;;;0.68;;
41861;SDS011;27537;57.134;-2.136;2023-07-13T13:27:44;1.90;;;0.77;;
41861;SDS011;27537;57.134;-2.136;2023-07-13T13:30:12;0.88;;;0.65;;
41861;SDS011;27537;57.134;-2.136;2023-07-13T13:32:42;1.17;;;0.60;;
41861;SDS011;27537;57.134;-2.136;2023-07-13T13:35:15;1.63;;;0.68;;
41861;SDS011;27537;57.134;-2.136;2023-07-13T13:37:44;1.42;;;0.70;;
41861;SDS011;27537;57.134;-2.136;2023-07-13T13:40:15;2.53;;;0.80;;
41861;SDS011;27537;57.134;-2.136;2023-07-13T13:42:44;1.17;;;0.60;;
41861;SDS011;27537;57.134;-2.136;2023-07-13T13:45:11;1.00;;;0.70;;
41861;SDS011;27537;57.134;-2.136;2023-07-13T13:47:42;1.58;;;0.70;;
41861;SDS011;27537;57.134;-2.136;2023-07-13T13:50:13;2.10;;;0.88;;
41861;SDS011;27537;57.134;-2.136;2023-07-13T13:52:42;2.42;;;1.00;;
41861;SDS011;27537;57.134;-2.136;2023-07-13T13:55:14;1.02;;;0.70;;
41861;SDS011;27537;57.134;-2.136;2023-07-13T13:57:41;3.70;;;1.00;;
41861;SDS011;27537;57.134;-2.136;2023-07-13T14:00:12;1.38;;;0.80;;
41861;SDS011;27537;57.134;-2.136;2023-07-13T14:02:41;2.20;;;0.98;;
41861;SDS011;27537;57.134;-2.136;2023-07-13T14:07:42;1.42;;;0.80;;
41861;SDS011;27537;57.134;-2.136;2023-07-13T14:10:12;2.90;;;1.10;;
41861;SDS011;27537;57.134;-2.136;2023-07-13T14:12:44;2.67;;;0.88;;
41861;SDS011;27537;57.134;-2.136;2023-07-13T14:15:15;2.58;;;0.90;;
41861;SDS011;27537;57.134;-2.136;2023-07-13T14:17:46;4.88;;;1.27;;
41861;SDS011;27537;57.134;-2.136;2023-07-13T14:20:17;4.22;;;1.10;;
41861;SDS011;27537;57.134;-2.136;2023-07-13T14:22:46;2.72;;;1.10;;
41861;SDS011;27537;57.134;-2.136;2023-07-13T14:25:13;4.32;;;1.20;;
41861;SDS011;27537;57.134;-2.136;2023-07-13T14:27:41;5.13;;;1.20;;
41861;SDS011;27537;57.134;-2.136;2023-07-13T14:30:13;4.63;;;1.38;;
41861;SDS011;27537;57.134;-2.136;2023-07-13T14:32:41;4.40;;;1.42;;
41861;SDS011;27537;57.134;-2.136;2023-07-13T14:35:10;4.18;;;1.60;;
41861;SDS011;27537;57.134;-2.136;2023-07-13T14:37:41;3.78;;;1.25;;
41861;SDS011;27537;57.134;-2.136;2023-07-13T14:40:28;4.43;;;1.30;;
41861;SDS011;27537;57.134;-2.136;2023-07-13T14:42:58;4.50;;;1.48;;
41861;SDS011;27537;57.134;-2.136;2023-07-13T14:45:25;3.13;;;1.13;;
41861;SDS011;27537;57.134;-2.136;2023-07-13T14:47:52;6.85;;;1.42;;
41861;SDS011;27537;57.134;-2.136;2023-07-13T14:50:20;3.70;;;1.27;;
41861;SDS011;27537;57.134;-2.136;2023-07-13T14:52:51;4.72;;;1.00;;
41861;SDS011;27537;57.134;-2.136;2023-07-13T14:55:18;5.30;;;1.20;;
41861;SDS011;27537;57.134;-2.136;2023-07-13T14:57:45;3.88;;;1.50;;
41861;SDS011;27537;57.134;-2.136;2023-07-13T15:02:42;4.97;;;1.25;;
41861;SDS011;27537;57.134;-2.136;2023-07-13T15:05:29;5.20;;;1.30;;
41861;SDS011;27537;57.134;-2.136;2023-07-13T15:07:58;3.38;;;1.10;;
41861;SDS011;27537;57.134;-2.136;2023-07-13T15:10:31;6.20;;;1.30;;
41861;SDS011;27537;57.134;-2.136;2023-07-13T15:13:00;4.30;;;1.40;;
41861;SDS011;27537;57.134;-2.136;2023-07-13T15:15:38;7.47;;;1.70;;
41861;SDS011;27537;57.134;-2.136;2023-07-13T15:18:10;6.10;;;1.25;;
41861;SDS011;27537;57.134;-2.136;2023-07-13T15:20:38;5.20;;;1.30;;
41861;SDS011;27537;57.134;-2.136;2023-07-13T15:23:05;5.53;;;1.40;;
41861;SDS011;27537;57.134;-2.136;2023-07-13T15:25:33;7.65;;;1.20;;
41861;SDS011;27537;57.134;-2.136;2023-07-13T15:28:00;5.55;;;1.33;;
41861;SDS011;27537;57.134;-2.136;2023-07-13T15:33:10;5.22;;;1.40;;
41861;SDS011;27537;57.134;-2.136;2023-07-13T15:35:38;4.40;;;1.27;;